Rawlins, WY

6:20 AM MDT on August 28, 2016 (GMT -0600)
Highland Towne | | Change Station

Elev 6831 ft 41.82 °N, 107.22 °W | Updated 11 minutes ago

Clear
Clear
50.7 °F
Feels Like 50.7 °F
N
0.0
Wind Variable Wind from ESE

Today
High -- | Low -- °F
--% Chance of Precip.
Yesterday
High -- | Low -- °F
Precip. -- in
Pressure 30.00 in
Visibility 10.0 miles
Clouds Clear
Dew Point 35 °F
Humidity 54%
Rainfall 0.00 in
Snow Depth Not available.
6:31 AM 7:47 PM
Waning Crescent, 16% visible
METAR KRWL 281153Z AUTO 22007KT 10SM CLR 10/01 A3025 RMK AO2 SLP157 T01000011 10156 20089 53010
Pressure 30.00 in
Visibility 10.0 miles
Clouds Clear
Dew Point 35 °F
Humidity 54%
Rainfall 0.00 in
Snow Depth Not available.
6:31 AM 7:47 PM
Waning Crescent, 16% visible
METAR KRWL 281153Z AUTO 22007KT 10SM CLR 10/01 A3025 RMK AO2 SLP157 T01000011 10156 20089 53010

10-Day Weather Forecast

Almanac

Astronomy

Aug. 28, 2016 Rise Set
Actual Time
Civil Twilight
Nautical Twilight
Astronomical Twilight
Moon
Length of Visible Light
Length of Day
Tomorrow will be .
, % of the Moon is Illuminated

Today's Extremes

State Highs State Lows

Community

WunderPhotos

Upload Photos

1,935,557 photos uploaded!

WunderBlog® & News

Nearby

Air Quality

  Air Quality AQ Index Pollutant
Not available.

Snow Depth

Station Depth Elevation

Earthquake Activity

City Distance Mag. Time & Date
Minimum magnitude displayed is 2.5.

Coastal Water Temperatures

Place Temperature

Stations

Nearby Weather Stations

Station Location Temp. Windchill Dew Point Humidity Wind Precip. Elev Updated Type
                   

Watches & Warnings

There are currently no watches in effect.